Time;durP1;ratioP1;P1;durP2;ratioP2;P2;SDS_P1;SDS_P2;PMS_P1;PMS_P2;Temp;Humidity;BMP_temperature;BMP_pressure;BME280_temperature;BME280_humidity;BME280_pressure;Samples;Min_cycle;Max_cycle;Signal;HPM_P1;HPM_P2
2023/04/01 00:00:29;;;;;;;7.03;4.38;;;;;;;10.95;73.92;99251.03;5065919;28;20052;-27
2023/04/01 00:02:55;;;;;;;11.15;5.18;;;;;;;10.85;74.18;99262.38;5065814;28;20025;-27
2023/04/01 00:05:21;;;;;;;7.60;4.55;;;;;;;10.89;74.55;99249.34;5065691;28;20029;-27
2023/04/01 00:07:47;;;;;;;10.23;5.13;;;;;;;10.93;74.07;99245.13;5065776;28;20090;-27
2023/04/01 00:10:15;;;;;;;10.65;5.25;;;;;;;10.84;74.12;99245.53;5065775;28;20214;-27
2023/04/01 00:12:41;;;;;;;10.98;4.80;;;;;;;10.70;75.23;99233.53;5065973;28;20036;-27
2023/04/01 00:15:08;;;;;;;9.10;4.30;;;;;;;10.60;75.89;99244.03;5065642;28;20477;-27
2023/04/01 00:17:34;;;;;;;7.15;4.35;;;;;;;10.55;76.03;99226.09;5065841;28;20060;-27
2023/04/01 00:20:00;;;;;;;7.07;4.20;;;;;;;10.44;77.26;99227.78;5065480;28;20056;-27
2023/04/01 00:22:26;;;;;;;9.27;4.40;;;;;;;10.38;77.01;99231.38;5069028;28;20064;-28
2023/04/01 00:24:51;;;;;;;11.13;4.57;;;;;;;10.39;77.31;99238.31;5069146;28;20434;-27
2023/04/01 00:27:17;;;;;;;6.63;4.15;;;;;;;10.49;77.27;99240.38;5069013;28;20027;-27
2023/04/01 00:29:44;;;;;;;7.30;4.15;;;;;;;10.57;76.65;99244.53;5069329;28;20032;-27
2023/04/01 00:32:10;;;;;;;10.27;5.22;;;;;;;10.70;75.72;99238.88;5068893;28;20170;-27
2023/04/01 00:34:35;;;;;;;11.18;4.28;;;;;;;10.84;75.02;99250.88;5068922;28;20583;-28
2023/04/01 00:37:01;;;;;;;7.22;3.88;;;;;;;10.71;75.23;99267.19;5068792;28;20032;-27
2023/04/01 00:39:29;;;;;;;8.32;3.78;;;;;;;10.77;74.46;99242.22;5069132;28;20035;-28
2023/04/01 00:41:56;;;;;;;8.80;4.03;;;;;;;11.05;73.52;99259.22;5068562;28;20194;-25
2023/04/01 00:44:25;;;;;;;8.00;4.03;;;;;;;11.32;71.93;99261.22;5068693;28;20029;-27
2023/04/01 00:46:52;;;;;;;8.27;4.57;;;;;;;10.95;73.85;99262.53;5068865;28;20032;-27
2023/04/01 00:49:20;;;;;;;10.10;4.18;;;;;;;10.83;73.83;99243.13;5068844;28;20371;-28
2023/04/01 00:51:49;;;;;;;11.95;4.00;;;;;;;10.78;74.13;99254.50;5068872;28;20056;-27
2023/04/01 00:54:17;;;;;;;11.90;5.38;;;;;;;10.63;74.70;99228.38;5068514;28;20029;-28
2023/04/01 00:56:49;;;;;;;14.07;6.57;;;;;;;10.53;76.10;99238.84;5068453;28;20062;-27
2023/04/01 00:59:22;;;;;;;11.68;6.22;;;;;;;10.59;75.78;99237.91;5068257;28;20032;-27
2023/04/01 01:01:47;;;;;;;10.95;4.82;;;;;;;10.73;75.23;99245.63;5068486;28;20036;-27
2023/04/01 01:04:28;;;;;;;9.23;4.20;;;;;;;10.70;75.25;99249.53;5068430;28;20029;-27
2023/04/01 01:06:57;;;;;;;8.60;4.13;;;;;;;10.65;75.44;99246.81;5068587;28;20682;-27
2023/04/01 01:09:25;;;;;;;8.00;4.10;;;;;;;10.63;75.28;99259.56;5068117;28;20186;-28
2023/04/01 01:11:50;;;;;;;;;;;;;;;10.77;74.62;99254.75;5068933;28;20111;-27
2023/04/01 01:14:36;;;;;;;8.45;4.00;;;;;;;10.62;74.88;99250.75;5068284;28;20015;-27
2023/04/01 01:17:27;;;;;;;8.65;3.63;;;;;;;10.65;74.73;99234.28;5068404;28;20500;-27
2023/04/01 01:20:20;;;;;;;7.25;4.18;;;;;;;10.55;74.30;99251.94;5068092;28;20150;-27
2023/04/01 01:23:13;;;;;;;9.50;4.60;;;;;;;10.60;72.93;99257.34;5068038;28;20024;-27
2023/04/01 01:25:55;;;;;;;9.65;4.68;;;;;;;10.05;74.77;99224.88;5068015;28;20077;-27
2023/04/01 01:28:32;;;;;;;11.18;5.30;;;;;;;10.28;73.87;99239.16;5068073;28;20503;-27
2023/04/01 01:31:29;;;;;;;9.23;4.50;;;;;;;10.17;75.29;99237.31;5067669;28;20836;-27
2023/04/01 01:34:02;;;;;;;9.43;4.63;;;;;;;10.47;74.61;99244.34;5067623;28;20089;-26
2023/04/01 01:36:34;;;;;;;8.48;5.00;;;;;;;10.54;74.11;99251.16;5066040;28;20035;-27
2023/04/01 01:39:03;;;;;;;11.25;6.07;;;;;;;10.26;75.26;99227.94;5067588;28;20103;-27
2023/04/01 01:41:30;;;;;;;8.88;4.75;;;;;;;10.26;75.94;99249.25;5067340;28;20033;-27
2023/04/01 01:43:56;;;;;;;8.98;4.63;;;;;;;10.40;73.98;99257.78;5066365;28;20085;-27
2023/04/01 01:46:26;;;;;;;9.93;4.80;;;;;;;10.49;73.62;99268.91;5067485;28;20089;-27
2023/04/01 01:48:53;;;;;;;9.50;5.03;;;;;;;10.09;75.22;99259.00;5067373;28;20024;-27
2023/04/01 01:51:20;;;;;;;8.57;5.20;;;;;;;10.04;75.02;99223.22;5067610;28;20066;-26
2023/04/01 01:53:45;;;;;;;8.43;5.40;;;;;;;10.10;75.62;99255.31;5067554;28;20143;-27
2023/04/01 01:56:15;;;;;;;9.23;5.03;;;;;;;10.27;75.32;99256.19;5067326;28;20025;-27
2023/04/01 01:58:55;;;;;;;9.40;5.25;;;;;;;10.05;77.09;99235.53;5067276;28;20037;-27
2023/04/01 02:01:25;;;;;;;8.20;5.45;;;;;;;9.35;80.24;99198.34;5066780;28;20094;-27
2023/04/01 02:03:52;;;;;;;8.00;4.80;;;;;;;9.66;80.66;99213.09;5067330;28;20024;-27
2023/04/01 02:06:22;;;;;;;8.50;5.33;;;;;;;10.01;79.32;99237.03;5067126;28;20098;-27
2023/04/01 02:08:55;;;;;;;15.55;5.30;;;;;;;9.60;80.94;99225.53;5067123;28;20033;-27
2023/04/01 02:11:45;;;;;;;7.40;4.88;;;;;;;9.36;83.52;99229.25;5067023;28;20469;-28
2023/04/01 02:14:16;;;;;;;9.20;4.88;;;;;;;9.55;81.59;99206.75;5066288;28;20117;-27
2023/04/01 02:17:02;;;;;;;15.85;7.90;;;;;;;9.89;79.61;99225.59;5066952;28;20020;-27
2023/04/01 02:19:57;;;;;;;7.47;4.68;;;;;;;9.35;82.85;99214.31;5066789;28;20039;-27
2023/04/01 02:22:46;;;;;;;9.18;4.57;;;;;;;9.19;83.95;99202.50;5024180;28;20507;-27
2023/04/01 02:25:20;;;;;;;9.45;5.00;;;;;;;8.97;84.63;99194.25;5049567;28;20035;-27
2023/04/01 02:27:46;;;;;;;10.00;5.40;;;;;;;9.09;85.07;99208.38;5067201;28;20031;-26
2023/04/01 02:30:14;;;;;;;9.63;5.10;;;;;;;9.04;84.89;99201.09;5066657;28;20032;-27
2023/04/01 02:32:40;;;;;;;11.88;5.38;;;;;;;8.71;86.75;99206.13;5066603;28;20028;-26
2023/04/01 02:35:11;;;;;;;11.20;5.75;;;;;;;8.52;87.97;99205.38;5066537;28;20032;-27
2023/04/01 02:37:37;;;;;;;10.30;5.55;;;;;;;8.41;88.04;99212.28;5066699;28;20526;-27
2023/04/01 02:40:07;;;;;;;11.23;5.53;;;;;;;8.52;88.61;99211.53;5066492;28;20034;-27
2023/04/01 02:42:33;;;;;;;10.13;6.07;;;;;;;8.82;86.58;99206.13;5066541;28;20025;-26
2023/04/01 02:44:58;;;;;;;10.07;6.85;;;;;;;8.69;86.81;99219.66;5066115;28;20051;-27
2023/04/01 02:47:24;;;;;;;8.35;5.30;;;;;;;8.74;86.67;99227.75;5066627;28;20059;-27
2023/04/01 02:49:49;;;;;;;10.02;6.38;;;;;;;8.69;86.56;99230.28;5066526;28;20578;-27
2023/04/01 02:52:15;;;;;;;12.32;6.13;;;;;;;8.73;85.96;99226.13;5066063;28;20036;-27
2023/04/01 02:54:40;;;;;;;10.95;6.13;;;;;;;8.83;85.46;99221.06;5066401;28;20040;-27
2023/04/01 02:57:06;;;;;;;11.73;6.55;;;;;;;9.14;83.08;99224.47;5066265;28;20071;-27
2023/04/01 02:59:31;;;;;;;12.68;6.53;;;;;;;9.38;81.37;99225.28;5066045;28;20082;-27
2023/04/01 03:01:58;;;;;;;11.68;6.60;;;;;;;9.45;80.33;99214.53;5066256;28;20045;-27
2023/04/01 03:04:23;;;;;;;10.40;6.55;;;;;;;9.59;79.46;99210.59;5066080;28;20447;-27
2023/04/01 03:06:49;;;;;;;10.80;5.90;;;;;;;9.08;81.84;99216.59;5066536;28;20074;-27
2023/04/01 03:09:15;;;;;;;10.38;7.25;;;;;;;8.75;85.02;99212.63;5066206;28;20404;-27
2023/04/01 03:11:41;;;;;;;10.88;7.18;;;;;;;8.69;86.79;99214.34;5066120;28;20029;-27
2023/04/01 03:14:06;;;;;;;13.35;7.00;;;;;;;9.19;83.42;99211.31;5066120;28;20028;-26
2023/04/01 03:16:32;;;;;;;10.40;6.53;;;;;;;9.35;81.61;99207.13;5066134;28;20127;-27
2023/04/01 03:18:59;;;;;;;10.60;7.13;;;;;;;9.46;80.79;99208.19;5066245;28;20032;-27
2023/04/01 03:21:25;;;;;;;11.82;6.43;;;;;;;9.39;80.14;99207.47;5066070;28;20031;-27
2023/04/01 03:23:51;;;;;;;15.43;7.80;;;;;;;8.84;83.74;99189.97;5066247;28;20098;-27
2023/04/01 03:26:17;;;;;;;14.50;7.65;;;;;;;8.88;83.77;99187.66;5066076;28;20071;-27
2023/04/01 03:28:44;;;;;;;12.80;7.78;;;;;;;8.76;84.63;99182.31;5066030;28;20786;-27
2023/04/01 03:31:10;;;;;;;11.68;7.55;;;;;;;9.28;81.82;99179.03;5065826;28;20549;-27
2023/04/01 03:33:36;;;;;;;13.05;7.82;;;;;;;9.05;82.72;99165.50;5066148;28;20021;-27
2023/04/01 03:36:03;;;;;;;13.45;8.27;;;;;;;8.76;85.02;99167.19;5065933;28;20036;-27
2023/04/01 03:38:28;;;;;;;15.75;8.82;;;;;;;8.92;84.37;99167.56;5066123;28;20025;-27
2023/04/01 03:40:54;;;;;;;13.75;9.50;;;;;;;9.13;81.93;99166.97;5065855;28;20037;-27
2023/04/01 03:43:20;;;;;;;12.38;8.43;;;;;;;9.17;81.89;99180.63;5065997;28;20032;-27
2023/04/01 03:45:50;;;;;;;16.27;8.52;;;;;;;8.75;82.09;99170.09;5065826;28;20514;-27
2023/04/01 03:48:16;;;;;;;19.42;8.38;;;;;;;8.54;83.82;99200.63;5065766;28;20021;-27
2023/04/01 03:50:43;;;;;;;20.08;9.63;;;;;;;8.37;85.13;99201.25;5065752;28;20036;-26
2023/04/01 03:53:08;;;;;;;17.58;8.60;;;;;;;8.39;83.41;99204.50;5066114;28;20033;-26
2023/04/01 03:55:36;;;;;;;13.55;8.40;;;;;;;8.33;83.67;99184.13;5068315;28;20031;-26
2023/04/01 03:58:02;;;;;;;15.13;8.63;;;;;;;8.52;82.66;99186.78;5069603;28;20058;-27
2023/04/01 04:00:30;;;;;;;16.80;10.13;;;;;;;8.44;83.02;99182.63;5069379;28;20131;-26
2023/04/01 04:02:56;;;;;;;24.83;13.88;;;;;;;8.30;84.43;99173.97;5069690;28;20064;-26
2023/04/01 04:05:22;;;;;;;31.73;19.88;;;;;;;8.64;83.18;99176.97;5069939;28;20043;-26
2023/04/01 04:07:48;;;;;;;22.73;13.23;;;;;;;8.98;80.60;99169.28;5069215;28;20020;-25
2023/04/01 04:10:14;;;;;;;23.80;14.05;;;;;;;8.75;82.13;99170.88;5069547;28;20031;-26
2023/04/01 04:12:40;;;;;;;24.98;16.83;;;;;;;8.50;83.70;99172.91;5069435;28;20056;-26
2023/04/01 04:15:06;;;;;;;28.85;17.42;;;;;;;8.89;81.19;99179.47;5069313;28;20039;-26
2023/04/01 04:17:31;;;;;;;24.63;17.55;;;;;;;8.95;81.10;99167.09;5069198;28;20058;-26
2023/04/01 04:19:57;;;;;;;43.60;25.77;;;;;;;8.71;81.82;99167.06;5069170;28;20032;-26
2023/04/01 04:22:22;;;;;;;31.52;18.08;;;;;;;8.85;81.01;99171.13;5069331;28;20135;-27
2023/04/01 04:24:48;;;;;;;24.08;14.95;;;;;;;8.62;83.05;99160.44;5068962;28;20056;-26
2023/04/01 04:27:13;;;;;;;78.30;42.75;;;;;;;8.40;84.32;99158.31;5069083;28;20039;-26
2023/04/01 04:29:38;;;;;;;48.97;27.90;;;;;;;8.64;83.51;99153.06;5068883;28;20047;-26
2023/04/01 04:32:04;;;;;;;27.58;14.10;;;;;;;8.79;82.01;99147.31;5068972;28;20028;-26
2023/04/01 04:34:30;;;;;;;297.13;114.97;;;;;;;8.63;83.23;99144.28;5068785;28;20036;-26
2023/04/01 04:36:55;;;;;;;404.15;166.02;;;;;;;8.74;83.22;99152.50;5069167;28;20036;-26
2023/04/01 04:39:21;;;;;;;161.45;68.28;;;;;;;8.63;83.13;99156.78;5068981;28;20024;-29
2023/04/01 04:41:46;;;;;;;182.90;76.85;;;;;;;8.81;83.03;99164.66;5068989;28;20036;-27
2023/04/01 04:44:12;;;;;;;188.13;72.18;;;;;;;8.73;82.86;99154.34;5068552;28;20024;-27
2023/04/01 04:46:39;;;;;;;137.32;53.90;;;;;;;8.90;82.91;99169.63;5068580;28;20036;-27
2023/04/01 04:49:05;;;;;;;40.60;19.10;;;;;;;8.75;83.72;99176.22;5068787;28;20490;-27
2023/04/01 04:51:33;;;;;;;18.02;12.27;;;;;;;8.71;84.89;99175.03;5068601;28;20111;-27
2023/04/01 04:53:59;;;;;;;;;;;;;;;8.62;85.83;99165.75;5068974;28;20462;-27
2023/04/01 04:56:25;;;;;;;23.17;12.73;;;;;;;8.57;86.32;99168.31;5068431;28;19913;-27
2023/04/01 04:58:51;;;;;;;18.55;11.32;;;;;;;8.93;84.33;99163.84;5068579;28;20029;-27
2023/04/01 05:01:18;;;;;;;19.48;12.23;;;;;;;9.20;82.87;99172.19;5068073;28;20084;-27
2023/04/01 05:03:44;;;;;;;21.40;12.90;;;;;;;9.50;81.37;99174.72;5068403;28;20062;-26
2023/04/01 05:06:13;;;;;;;22.42;13.07;;;;;;;9.25;83.03;99154.50;5067882;28;20027;-27
2023/04/01 05:08:40;;;;;;;25.15;13.15;;;;;;;9.29;83.50;99181.44;5050462;28;20052;-26
2023/04/01 05:11:09;;;;;;;20.67;12.40;;;;;;;9.21;84.41;99161.34;5068368;28;20487;-27
2023/04/01 05:13:35;;;;;;;22.30;12.60;;;;;;;9.83;81.21;99175.94;5068160;28;20069;-27
2023/04/01 05:16:01;;;;;;;25.50;15.43;;;;;;;10.00;80.66;99176.81;5068205;28;20032;-27
2023/04/01 05:18:26;;;;;;;21.77;13.25;;;;;;;10.23;77.78;99180.41;5068253;28;20052;-27
2023/04/01 05:20:54;;;;;;;22.83;12.20;;;;;;;10.25;78.35;99191.66;5068287;28;20031;-27
2023/04/01 05:23:22;;;;;;;23.33;13.60;;;;;;;10.35;77.74;99181.22;5067988;28;20094;-27
2023/04/01 05:25:52;;;;;;;22.13;13.30;;;;;;;10.72;77.19;99177.31;5068295;28;20094;-27
2023/04/01 05:28:18;;;;;;;19.10;12.98;;;;;;;11.12;74.45;99166.47;5067896;28;20110;-27
2023/04/01 05:30:44;;;;;;;20.40;11.52;;;;;;;11.20;74.40;99144.72;5068128;28;20098;-27
2023/04/01 05:33:11;;;;;;;26.73;15.52;;;;;;;10.81;76.76;99141.22;5068211;28;20115;-27
2023/04/01 05:35:36;;;;;;;31.45;18.08;;;;;;;10.65;77.49;99146.28;5067733;28;20480;-27
2023/04/01 05:38:03;;;;;;;20.20;13.98;;;;;;;11.26;75.41;99143.72;5067828;28;20039;-27
2023/04/01 05:40:29;;;;;;;19.95;11.82;;;;;;;11.38;73.89;99150.81;5067942;28;20025;-27
2023/04/01 05:42:54;;;;;;;16.77;10.80;;;;;;;11.52;74.27;99144.06;5067486;28;20166;-27
2023/04/01 05:45:20;;;;;;;13.05;8.45;;;;;;;11.51;74.01;99137.13;5067163;28;20020;-25
2023/04/01 05:47:46;;;;;;;15.57;9.43;;;;;;;11.38;75.67;99132.13;5067867;28;20111;-27
2023/04/01 05:50:11;;;;;;;14.45;8.75;;;;;;;11.37;74.65;99127.84;5067390;28;20029;-27
2023/04/01 05:52:38;;;;;;;17.85;8.82;;;;;;;11.30;75.02;99136.06;5067469;28;20028;-27
2023/04/01 05:55:04;;;;;;;12.90;8.07;;;;;;;11.04;76.89;99126.88;5067356;28;20032;-27
2023/04/01 05:57:30;;;;;;;16.30;8.95;;;;;;;11.17;77.41;99126.50;5067179;28;20048;-27
2023/04/01 05:59:55;;;;;;;18.02;11.75;;;;;;;11.11;78.51;99124.81;5067556;28;20537;-27
2023/04/01 06:02:20;;;;;;;18.17;8.40;;;;;;;10.89;79.60;99121.28;5067180;28;20480;-27
2023/04/01 06:04:46;;;;;;;12.13;7.90;;;;;;;11.02;79.27;99128.97;5067434;28;20459;-28
2023/04/01 06:07:13;;;;;;;13.10;7.85;;;;;;;10.85;80.32;99113.81;5066794;28;20077;-29
2023/04/01 06:09:39;;;;;;;12.52;7.90;;;;;;;11.10;79.64;99141.91;5067032;28;20028;-28
2023/04/01 06:12:07;;;;;;;16.15;9.88;;;;;;;11.22;79.08;99139.94;5067398;28;20393;-27
2023/04/01 06:14:36;;;;;;;17.67;9.50;;;;;;;11.27;79.30;99133.84;5067258;28;20024;-27
2023/04/01 06:17:07;;;;;;;;;;;;;;;11.01;81.27;99136.19;5067392;28;20028;-28
2023/04/01 06:19:51;;;;;;;15.27;8.63;;;;;;;11.07;80.63;99131.69;5065653;28;19908;-27
2023/04/01 06:22:44;;;;;;;30.75;19.85;;;;;;;11.17;79.87;99107.03;5066804;28;20052;-27
2023/04/01 06:25:28;;;;;;;41.55;26.90;;;;;;;11.15;79.99;99112.59;5066702;28;20078;-27
2023/04/01 06:28:15;;;;;;;16.27;8.38;;;;;;;10.85;82.22;99097.00;5066474;28;20069;-28
2023/04/01 06:30:47;;;;;;;12.32;7.45;;;;;;;10.68;82.95;99073.00;5066522;28;20032;-27
2023/04/01 06:33:37;;;;;;;15.02;9.10;;;;;;;10.88;82.73;99085.81;5066806;28;20085;-27
2023/04/01 06:36:05;;;;;;;12.90;7.25;;;;;;;11.17;82.66;99083.81;5066664;28;20058;-27
2023/04/01 06:39:10;;;;;;;14.10;7.05;;;;;;;10.97;84.31;99067.53;5067098;28;20029;-27
2023/04/01 06:41:44;;;;;;;22.35;14.20;;;;;;;11.16;81.78;99058.19;5055693;28;20032;-27
2023/04/01 06:44:42;;;;;;;27.17;17.33;;;;;;;11.18;81.81;99064.09;5066568;28;20032;-29
2023/04/01 06:47:30;;;;;;;16.08;10.07;;;;;;;11.56;80.56;99051.72;5066930;28;20124;-27
2023/04/01 06:49:58;;;;;;;18.25;11.52;;;;;;;11.62;79.69;99061.41;5066518;28;20115;-27
2023/04/01 06:52:50;;;;;;;16.05;8.43;;;;;;;11.48;81.14;99062.84;5066059;28;20127;-27
2023/04/01 06:55:29;;;;;;;15.10;7.82;;;;;;;11.30;82.32;99063.16;5066344;28;20032;-27
2023/04/01 06:57:57;;;;;;;14.10;7.20;;;;;;;11.63;81.66;99097.75;5066125;28;20039;-27
2023/04/01 07:00:32;;;;;;;12.70;7.22;;;;;;;11.55;80.81;99074.16;5066404;28;20630;-27
2023/04/01 07:03:16;;;;;;;14.48;6.95;;;;;;;11.88;79.99;99091.06;5066255;28;20105;-27
2023/04/01 07:05:42;;;;;;;12.75;6.82;;;;;;;11.79;79.99;99081.88;5066410;28;20025;-27
2023/04/01 07:08:15;;;;;;;18.67;12.43;;;;;;;11.89;79.95;99084.72;5066318;28;20029;-27
2023/04/01 07:10:47;;;;;;;19.27;11.98;;;;;;;11.92;78.48;99078.84;5066231;28;20028;-27
2023/04/01 07:13:21;;;;;;;16.60;12.00;;;;;;;11.96;77.67;99045.22;5066166;28;20016;-27
2023/04/01 07:16:19;;;;;;;16.13;10.23;;;;;;;12.35;77.24;99045.03;5066463;28;20603;-27
2023/04/01 07:18:49;;;;;;;15.20;7.20;;;;;;;12.44;76.25;99058.72;5024810;28;20692;-27
2023/04/01 07:21:36;;;;;;;13.90;9.32;;;;;;;12.31;76.20;99030.56;5066032;28;20143;-27
2023/04/01 07:24:10;;;;;;;16.38;10.18;;;;;;;12.82;74.92;99071.03;5066288;28;20554;-27
2023/04/01 07:26:35;;;;;;;14.98;7.13;;;;;;;13.44;74.60;99061.50;5066081;28;20452;-27
2023/04/01 07:29:01;;;;;;;14.30;8.38;;;;;;;13.84;72.03;99053.84;5066200;28;20064;-27
2023/04/01 07:31:51;;;;;;;11.18;6.78;;;;;;;13.78;71.45;99028.09;5069889;28;20024;-27
2023/04/01 07:34:26;;;;;;;15.80;6.97;;;;;;;14.00;70.42;99007.22;5069963;28;20093;-27
2023/04/01 07:37:06;;;;;;;12.32;6.45;;;;;;;14.12;70.47;99022.22;5069696;28;20098;-27
2023/04/01 07:40:04;;;;;;;10.95;5.38;;;;;;;14.48;69.02;99009.63;5069724;28;20418;-27
2023/04/01 07:42:39;;;;;;;16.15;6.93;;;;;;;14.51;67.68;99003.72;5069887;28;20116;-27
2023/04/01 07:45:07;;;;;;;10.05;4.57;;;;;;;14.32;67.84;98997.28;5069430;28;20457;-28
2023/04/01 07:48:08;;;;;;;17.80;8.90;;;;;;;14.41;67.70;98993.00;5069863;28;20097;-27
2023/04/01 07:50:49;;;;;;;19.15;8.75;;;;;;;14.60;66.49;98995.94;5069844;28;20111;-27
2023/04/01 07:53:32;;;;;;;11.70;5.82;;;;;;;14.86;65.84;99000.19;5059956;28;20426;-27
2023/04/01 07:56:15;;;;;;;10.18;5.78;;;;;;;14.51;66.40;98965.38;5049925;28;20040;-27
2023/04/01 07:59:05;;;;;;;9.35;5.25;;;;;;;15.18;63.87;98996.31;5049443;28;20032;-27
2023/04/01 08:01:49;;;;;;;8.95;4.47;;;;;;;15.30;63.96;99003.25;5048475;28;20057;-27
2023/04/01 08:04:33;;;;;;;8.98;4.90;;;;;;;16.07;63.59;98990.94;5049808;28;20052;-27
2023/04/01 08:07:20;;;;;;;9.27;4.18;;;;;;;16.62;59.95;98979.16;5049387;28;20087;-27
2023/04/01 08:09:54;;;;;;;9.55;4.75;;;;;;;16.61;59.87;98975.69;5049479;28;20021;-27
2023/04/01 08:12:58;;;;;;;9.45;5.53;;;;;;;16.01;60.28;98937.50;5048799;28;20047;-27
2023/04/01 08:15:39;;;;;;;11.05;5.07;;;;;;;16.37;59.18;98956.81;5048808;28;20527;-27
2023/04/01 08:18:35;;;;;;;10.30;5.55;;;;;;;16.65;59.28;98962.44;5048861;28;20047;-27
2023/04/01 08:21:03;;;;;;;9.88;4.10;;;;;;;16.67;57.63;98961.06;5049137;28;20029;-27
2023/04/01 08:23:47;;;;;;;7.47;3.53;;;;;;;16.29;58.53;98932.41;5048635;28;20140;-27
2023/04/01 08:26:39;;;;;;;8.15;3.67;;;;;;;16.86;56.38;98942.31;5048755;28;20021;-27
2023/04/01 08:29:32;;;;;;;6.90;3.67;;;;;;;16.81;56.63;98945.03;5048999;28;20037;-27
2023/04/01 08:32:05;;;;;;;8.70;3.65;;;;;;;17.02;55.49;98944.78;5048706;28;20515;-26
2023/04/01 08:34:36;;;;;;;12.38;5.13;;;;;;;16.99;55.45;98945.38;5048679;28;20052;-27
2023/04/01 08:37:12;;;;;;;11.43;3.78;;;;;;;17.07;55.28;98936.66;5048902;28;20068;-26
2023/04/01 08:39:44;;;;;;;7.18;3.38;;;;;;;17.10;54.80;98929.88;5048666;28;20124;-26
2023/04/01 08:42:25;;;;;;;10.55;5.15;;;;;;;17.04;54.25;98921.88;5047885;28;20055;-26
2023/04/01 08:45:09;;;;;;;10.80;5.25;;;;;;;16.37;57.82;98919.13;5049068;28;20040;-26
2023/04/01 08:48:10;;;;;;;9.48;5.05;;;;;;;16.67;57.67;98917.19;5048698;28;20083;-26
2023/04/01 08:50:56;;;;;;;10.52;4.95;;;;;;;16.64;57.67;98915.06;5044382;28;20037;-27
2023/04/01 08:53:58;;;;;;;9.35;4.90;;;;;;;17.26;55.11;98910.56;5048795;28;20025;-27
2023/04/01 08:56:55;;;;;;;10.32;5.47;;;;;;;17.47;56.55;98902.97;5048578;28;20028;-26
2023/04/01 08:59:26;;;;;;;10.05;5.05;;;;;;;17.83;54.72;98904.31;5048337;28;20558;-26
2023/04/01 09:01:58;;;;;;;12.38;6.93;;;;;;;17.67;55.19;98874.91;5048788;28;20032;-26
2023/04/01 09:04:26;;;;;;;11.63;5.35;;;;;;;17.63;55.51;98886.53;5048548;28;20040;-26
2023/04/01 09:07:13;;;;;;;14.02;7.18;;;;;;;17.12;58.01;98860.38;5048613;28;20473;-27
2023/04/01 09:09:55;;;;;;;11.07;5.45;;;;;;;17.32;57.40;98870.84;5048828;28;20017;-27
2023/04/01 09:12:32;;;;;;;12.27;5.68;;;;;;;17.44;57.80;98859.63;5048414;28;20516;-27
2023/04/01 09:15:30;;;;;;;12.30;5.88;;;;;;;17.57;57.37;98848.09;5048624;28;20035;-27
2023/04/01 09:18:01;;;;;;;;;;;;;;;17.93;57.30;98842.09;5048654;28;20033;-27
2023/04/01 09:20:38;;;;;;;11.52;4.78;;;;;;;18.41;56.71;98855.25;5048018;28;19912;-27
2023/04/01 09:23:24;;;;;;;8.90;4.47;;;;;;;18.59;54.80;98844.63;5047934;28;20017;-27
2023/04/01 09:26:08;;;;;;;9.25;4.45;;;;;;;18.57;55.02;98836.84;5047586;28;20057;-27
2023/04/01 09:28:49;;;;;;;12.98;4.35;;;;;;;18.54;54.97;98817.75;5048326;28;20029;-27
2023/04/01 09:31:41;;;;;;;7.82;4.05;;;;;;;18.21;56.74;98817.88;5047690;28;20032;-26
2023/04/01 09:34:24;;;;;;;10.32;4.30;;;;;;;18.21;57.33;98823.25;5047799;28;20111;-27
2023/04/01 09:37:10;;;;;;;10.75;4.07;;;;;;;18.19;57.76;98814.66;5047637;28;20533;-27
2023/04/01 09:40:08;;;;;;;10.05;4.10;;;;;;;18.02;57.71;98799.06;5047642;28;20079;-27
2023/04/01 09:42:44;;;;;;;10.48;4.30;;;;;;;18.04;58.68;98765.31;5047382;28;20516;-27
2023/04/01 09:45:41;;;;;;;10.05;4.75;;;;;;;18.07;58.35;98770.09;5047879;28;20563;-26
2023/04/01 09:48:15;;;;;;;15.73;4.73;;;;;;;17.81;60.11;98752.78;5047482;28;20113;-27
2023/04/01 09:51:18;;;;;;;9.85;4.50;;;;;;;18.43;58.72;98766.66;5047509;28;20279;-27
2023/04/01 09:54:16;;;;;;;15.80;5.50;;;;;;;18.74;58.12;98776.00;4996439;28;20064;-26
2023/04/01 09:57:12;;;;;;;10.55;5.85;;;;;;;18.64;57.62;98768.94;5047323;28;20423;-28
2023/04/01 10:00:10;;;;;;;12.52;6.25;;;;;;;18.38;58.93;98745.16;5047403;28;20147;-27
2023/04/01 10:02:55;;;;;;;14.25;5.10;;;;;;;18.64;57.92;98747.31;5022538;28;21177;-27
2023/04/01 10:05:42;;;;;;;26.45;14.93;;;;;;;19.03;58.46;98732.41;5047268;28;20102;-28
2023/04/01 10:08:29;;;;;;;15.85;6.55;;;;;;;19.01;56.56;98735.41;5047178;28;20512;-27
2023/04/01 10:11:00;;;;;;;18.57;6.77;;;;;;;19.03;57.50;98729.72;5047532;28;20508;-27
2023/04/01 10:13:31;;;;;;;20.77;8.43;;;;;;;19.25;58.20;98731.59;5046208;28;20674;-27
2023/04/01 10:16:16;;;;;;;16.50;5.80;;;;;;;19.11;57.75;98722.78;5046971;28;20033;-27
2023/04/01 10:19:00;;;;;;;15.05;4.88;;;;;;;19.35;57.01;98714.31;5046726;28;20079;-27
2023/04/01 10:21:51;;;;;;;14.02;4.57;;;;;;;19.38;56.61;98708.31;5046985;28;20023;-27
2023/04/01 10:24:40;;;;;;;11.77;4.47;;;;;;;19.47;56.93;98709.94;5047343;28;20079;-27
2023/04/01 10:27:27;;;;;;;18.55;6.60;;;;;;;20.06;55.68;98707.00;5036195;28;20064;-27
2023/04/01 10:30:23;;;;;;;17.83;4.88;;;;;;;20.43;54.61;98704.03;5047001;28;20025;-27
2023/04/01 10:33:16;;;;;;;19.38;5.10;;;;;;;20.27;53.58;98693.66;5046689;28;20025;-27
2023/04/01 10:36:12;;;;;;;11.38;3.50;;;;;;;19.70;53.34;98687.47;5046974;28;20064;-28
2023/04/01 10:39:07;;;;;;;11.88;4.50;;;;;;;19.54;54.49;98670.84;5046695;28;20036;-27
2023/04/01 10:41:44;;;;;;;10.38;3.88;;;;;;;19.92;52.50;98668.47;5046364;28;20037;-27
2023/04/01 10:44:47;;;;;;;13.73;3.50;;;;;;;20.32;50.82;98665.63;5046650;28;20025;-27
2023/04/01 10:47:27;;;;;;;12.32;3.72;;;;;;;20.86;49.31;98658.00;5046276;28;20037;-27
2023/04/01 10:50:11;;;;;;;11.05;3.33;;;;;;;21.49;48.32;98654.00;5046531;28;20041;-27
2023/04/01 10:53:07;;;;;;;10.70;3.70;;;;;;;21.58;47.45;98655.56;5046320;28;20571;-27
2023/04/01 10:55:41;;;;;;;9.75;3.45;;;;;;;21.95;45.72;98646.91;5046742;28;20029;-27
2023/04/01 10:58:28;;;;;;;10.52;2.95;;;;;;;22.75;43.21;98630.47;5046778;28;20036;-27
2023/04/01 11:01:38;;;;;;;12.73;3.85;;;;;;;23.47;41.45;98632.91;5046364;28;20068;-27
2023/04/01 11:04:28;;;;;;;7.43;2.70;;;;;;;23.80;41.26;98618.41;5032323;28;20124;-27
2023/04/01 11:07:43;;;;;;;9.65;3.15;;;;;;;23.91;41.72;98602.41;5046401;28;20493;-29
2023/04/01 11:10:33;;;;;;;15.05;5.90;;;;;;;24.31;39.73;98577.09;5012263;28;20037;-28
2023/04/01 11:12:58;;;;;;;12.25;3.72;;;;;;;24.65;39.81;98581.16;5046136;28;20037;-27
2023/04/01 11:15:58;;;;;;;13.25;4.38;;;;;;;24.73;39.05;98566.59;5046186;28;20035;-27
2023/04/01 11:18:42;;;;;;;13.20;4.55;;;;;;;24.88;39.22;98562.28;5046063;28;20085;-27
2023/04/01 11:21:27;;;;;;;10.95;2.95;;;;;;;24.54;38.75;98541.94;5046642;28;20102;-27
2023/04/01 11:24:05;;;;;;;8.52;3.45;;;;;;;24.57;38.08;98538.50;5045684;28;20044;-27
2023/04/01 11:27:11;;;;;;;11.23;3.03;;;;;;;24.51;37.42;98531.75;5045982;28;20030;-27
2023/04/01 11:30:06;;;;;;;12.57;2.60;;;;;;;24.96;35.89;98525.09;5025236;28;20033;-27
2023/04/01 11:32:39;;;;;;;9.23;2.72;;;;;;;24.93;37.00;98509.41;5045090;28;20100;-27
2023/04/01 11:35:26;;;;;;;9.15;2.53;;;;;;;24.96;39.54;98503.28;5046127;28;20028;-27
2023/04/01 11:38:15;;;;;;;8.00;2.60;;;;;;;24.54;39.45;98493.69;5046170;28;20029;-27
2023/04/01 11:40:56;;;;;;;10.77;4.18;;;;;;;24.09;39.23;98485.81;5045857;28;20048;-28
2023/04/01 11:43:31;;;;;;;13.60;6.45;;;;;;;24.20;38.99;98489.63;5045975;28;20102;-27
2023/04/01 11:46:08;;;;;;;9.38;3.05;;;;;;;24.17;39.45;98473.97;5046137;28;20025;-27
2023/04/01 11:48:45;;;;;;;8.02;3.47;;;;;;;24.41;40.36;98476.56;5028015;28;20510;-27
2023/04/01 11:51:38;;;;;;;10.35;3.42;;;;;;;24.36;41.17;98471.41;5045967;28;20095;-27
2023/04/01 11:54:26;;;;;;;15.95;4.88;;;;;;;24.74;39.98;98470.03;5045891;28;20833;-27
2023/04/01 11:57:30;;;;;;;8.65;3.13;;;;;;;25.37;38.12;98462.94;5046394;28;20025;-27
2023/04/01 12:00:02;;;;;;;6.88;3.30;;;;;;;25.06;40.61;98464.56;5022221;28;20103;-27
2023/04/01 12:02:47;;;;;;;10.00;3.20;;;;;;;25.22;38.69;98461.84;5045888;28;20099;-26
2023/04/01 12:05:19;;;;;;;8.20;3.72;;;;;;;25.26;39.37;98447.13;5045928;28;20029;-28
2023/04/01 12:08:14;;;;;;;8.55;3.10;;;;;;;25.96;38.03;98453.63;5045762;28;20041;-27